Time;durP1;ratioP1;P1;durP2;ratioP2;P2;SDS_P1;SDS_P2;PMS_P1;PMS_P2;Temp;Humidity;BMP_temperature;BMP_pressure;BME280_temperature;BME280_humidity;BME280_pressure;Samples;Min_cycle;Max_cycle;Signal;HPM_P1;HPM_P2
2022/10/10 00:01:36;;;;;;;;;73.75;59.25;;;;;19.18;64.22;100054.53;4997384;28;9898;-80
2022/10/10 00:04:05;;;;;;;;;75.75;64.75;;;;;19.22;63.88;100057.03;4995989;28;9626;-79
2022/10/10 00:06:35;;;;;;;;;79.00;69.75;;;;;19.23;64.14;100055.28;5010113;28;9851;-79
2022/10/10 00:09:05;;;;;;;;;76.25;64.50;;;;;19.26;63.94;100056.06;5010120;28;10015;-77
2022/10/10 00:11:33;;;;;;;;;78.25;69.00;;;;;19.14;64.80;100052.91;5005621;28;10064;-78
2022/10/10 00:14:02;;;;;;;;;78.00;67.00;;;;;19.16;64.56;100051.06;5046194;28;9960;-79
2022/10/10 00:16:31;;;;;;;;;75.00;62.00;;;;;19.23;63.86;100057.94;5046551;28;10712;-77
2022/10/10 00:19:00;;;;;;;;;75.00;63.75;;;;;19.31;63.15;100060.34;5013403;28;9610;-78
2022/10/10 00:21:30;;;;;;;;;73.75;62.50;;;;;19.31;62.89;100055.94;4989444;28;9897;-78
2022/10/10 00:24:00;;;;;;;;;75.25;66.00;;;;;19.24;63.02;100055.25;5026159;28;9629;-77
2022/10/10 00:26:29;;;;;;;;;74.00;63.00;;;;;19.27;62.46;100056.94;5031955;28;9893;-80
2022/10/10 00:28:58;;;;;;;;;75.50;65.25;;;;;19.20;62.96;100050.06;5031713;28;9631;-78
2022/10/10 00:31:27;;;;;;;;;75.50;64.50;;;;;19.14;63.03;100051.13;5030862;28;9972;-79
2022/10/10 00:33:55;;;;;;;;;78.00;66.50;;;;;19.09;63.19;100053.00;5048275;28;9654;-77
2022/10/10 00:36:24;;;;;;;;;77.00;63.00;;;;;19.10;62.90;100054.75;5031565;28;9747;-78
2022/10/10 00:38:52;;;;;;;;;75.50;64.00;;;;;19.05;63.05;100051.38;5011030;28;9892;-76
2022/10/10 00:41:25;;;;;;;;;81.00;74.00;;;;;19.05;62.92;100046.97;5014475;28;9776;-80
2022/10/10 00:44:05;;;;;;;;;76.25;66.50;;;;;19.15;63.15;100044.03;5049420;28;10451;-80
2022/10/10 00:46:34;;;;;;;;;75.25;62.75;;;;;19.01;63.67;100049.72;5049012;28;9972;-77
2022/10/10 00:49:07;;;;;;;;;76.00;66.00;;;;;19.03;63.46;100043.47;5024741;28;10779;-79
2022/10/10 00:51:36;;;;;;;;;78.25;65.75;;;;;19.07;63.34;100045.16;5013759;28;9649;-79
2022/10/10 00:54:08;;;;;;;;;76.50;65.00;;;;;19.12;63.24;100044.16;4990847;28;10003;-77
2022/10/10 00:56:43;;;;;;;;;75.50;61.75;;;;;19.17;62.83;100037.81;4990099;28;9582;-77
2022/10/10 00:59:14;;;;;;;;;75.75;63.00;;;;;19.15;62.81;100047.56;4989822;28;9817;-78
2022/10/10 01:01:42;;;;;;;;;73.75;64.25;;;;;19.17;62.53;100036.94;4963295;28;9603;-78
2022/10/10 01:04:30;;;;;;;;;73.33;60.33;;;;;19.31;62.23;100042.72;4973044;28;9655;-81
2022/10/10 01:07:00;;;;;;;;;77.00;66.75;;;;;19.18;62.04;100043.97;4976995;28;9332;-77
2022/10/10 01:09:30;;;;;;;;;77.75;66.00;;;;;19.14;61.74;100034.41;4969954;28;9698;-78
2022/10/10 01:12:13;;;;;;;;;75.50;62.75;;;;;19.20;61.42;100042.16;4954587;28;9770;-79
2022/10/10 01:14:50;;;;;;;;;70.67;58.67;;;;;19.19;61.31;100033.34;4970117;28;9752;-77
2022/10/10 01:17:25;;;;;;;;;77.00;61.50;;;;;19.16;61.37;100029.94;4970798;28;9416;-79
2022/10/10 01:20:36;;;;;;;;;75.75;66.00;;;;;19.25;61.01;100030.53;4992538;28;9656;-78
2022/10/10 01:23:34;;;;;;;;;75.33;62.00;;;;;19.22;60.81;100025.31;4993434;28;9593;-77
2022/10/10 01:26:21;;;;;;;;;76.25;65.00;;;;;19.16;60.91;100025.50;5040713;28;9479;-78
2022/10/10 01:29:00;;;;;;;;;74.50;63.25;;;;;19.11;61.06;100010.66;5052052;28;9540;-79
2022/10/10 01:31:30;;;;;;;;;69.25;55.75;;;;;19.02;61.11;100011.81;5049944;28;9816;-77
2022/10/10 01:34:07;;;;;;;;;76.33;61.00;;;;;19.06;61.44;100010.81;5050390;28;9570;-76
2022/10/10 01:36:45;;;;;;;;;72.75;60.25;;;;;19.02;61.41;100007.38;5036127;28;9556;-80
2022/10/10 01:39:21;;;;;;;;;73.33;59.00;;;;;19.03;61.63;100009.09;5050931;28;9582;-78
2022/10/10 01:41:59;;;;;;;;;73.00;60.33;;;;;19.03;61.73;100006.47;5015712;28;9498;-79
2022/10/10 01:44:29;;;;;;;;;73.33;59.67;;;;;18.97;61.76;100003.13;5033215;28;9331;-79
2022/10/10 01:46:58;;;;;;;;;76.33;62.67;;;;;19.00;61.72;100008.34;5082850;28;9557;-78
2022/10/10 01:49:32;;;;;;;;;73.33;61.00;;;;;19.02;61.59;100001.25;5050847;28;9400;-78
2022/10/10 01:52:16;;;;;;;;;74.33;62.33;;;;;19.01;61.91;100007.44;5051023;28;9447;-78
2022/10/10 01:54:55;;;;;;;;;73.50;59.75;;;;;18.89;62.45;100000.72;5033573;28;9455;-78
2022/10/10 01:57:31;;;;;;;;;75.75;63.50;;;;;18.83;62.16;100006.16;5013097;28;9773;-78
2022/10/10 02:00:06;;;;;;;;;74.67;61.67;;;;;18.88;62.18;100004.25;5048506;28;9600;-78
2022/10/10 02:02:46;;;;;;;;;72.00;57.00;;;;;18.85;61.68;100007.00;5034610;28;9552;-76
2022/10/10 02:05:22;;;;;;;;;74.75;61.00;;;;;18.81;62.86;100007.94;5032977;28;9545;-79
2022/10/10 02:07:57;;;;;;;;;77.00;66.00;;;;;18.79;62.22;100015.03;5014567;28;9513;-78
2022/10/10 02:10:31;;;;;;;;;73.67;61.33;;;;;18.79;61.71;100015.03;5049684;28;9482;-80
2022/10/10 02:13:02;;;;;;;;;73.33;59.33;;;;;18.77;61.90;100014.19;5050367;28;9403;-78
2022/10/10 02:15:41;;;;;;;;;75.67;62.00;;;;;18.83;61.71;100004.38;5050791;28;9528;-78
2022/10/10 02:18:12;;;;;;;;;77.50;67.25;;;;;18.80;61.63;100014.13;5053478;28;9321;-78
2022/10/10 02:20:43;;;;;;;;;72.75;60.00;;;;;18.76;61.71;100010.69;5052614;28;9644;-81
2022/10/10 02:23:16;;;;;;;;;71.33;57.67;;;;;18.77;61.89;100016.84;5051086;28;9567;-78
2022/10/10 02:25:50;;;;;;;;;73.33;59.33;;;;;18.76;62.14;100021.28;5066007;28;9405;-80
2022/10/10 02:28:23;;;;;;;;;76.33;65.33;;;;;18.74;62.56;100009.88;5048869;28;9596;-80
2022/10/10 02:30:59;;;;;;;;;78.25;67.75;;;;;18.74;62.92;100011.66;5049144;28;9389;-77
2022/10/10 02:33:38;;;;;;;;;75.00;59.75;;;;;18.69;62.52;100010.00;5029879;28;10310;-77
2022/10/10 02:36:08;;;;;;;;;73.75;64.25;;;;;18.67;62.52;100001.22;5046735;28;10407;-77
2022/10/10 02:38:38;;;;;;;;;76.25;64.75;;;;;18.67;62.38;100001.22;5026774;28;9566;-78
2022/10/10 02:41:08;;;;;;;;;73.50;62.75;;;;;18.69;62.62;100004.72;5011779;28;9820;-81
2022/10/10 02:43:38;;;;;;;;;67.00;55.50;;;;;18.65;62.43;100010.97;5013222;28;9647;-78
2022/10/10 02:46:12;;;;;;;;;73.00;60.67;;;;;18.68;62.73;100005.63;5027094;28;9576;-77
2022/10/10 02:48:42;;;;;;;;;72.75;60.75;;;;;18.63;62.52;100010.16;5013227;28;9401;-78
2022/10/10 02:51:13;;;;;;;;;75.50;59.50;;;;;18.62;62.85;100008.44;5028414;28;10686;-80
2022/10/10 02:53:43;;;;;;;;;75.75;64.50;;;;;18.58;62.75;100004.16;5000811;28;9673;-78
2022/10/10 02:56:11;;;;;;;;;74.75;61.25;;;;;18.56;62.94;100008.56;5029757;28;9834;-78
2022/10/10 02:58:40;;;;;;;;;76.75;65.00;;;;;18.57;62.96;100010.31;5047616;28;9626;-78
2022/10/10 03:01:10;;;;;;;;;79.75;65.75;;;;;18.55;63.04;100009.50;5037692;28;9843;-83
2022/10/10 03:03:39;;;;;;;;;75.00;64.25;;;;;18.59;63.19;100007.66;5027704;28;9657;-80
2022/10/10 03:06:08;;;;;;;;;78.75;67.75;;;;;18.56;63.07;100007.72;5041542;28;9733;-78
2022/10/10 03:08:37;;;;;;;;;62.25;50.75;;;;;18.50;63.40;100014.88;5048464;28;9942;-78
2022/10/10 03:11:06;;;;;;;;;78.25;67.75;;;;;18.41;64.09;100014.25;5048177;28;9930;-79
2022/10/10 03:13:35;;;;;;;;;76.75;67.25;;;;;18.32;64.24;100018.00;5049501;28;9883;-79
2022/10/10 03:16:05;;;;;;;;;79.25;71.25;;;;;17.93;66.32;100016.25;5049486;28;9892;-79
2022/10/10 03:18:35;;;;;;;;;85.25;80.50;;;;;17.92;65.69;100019.81;5036864;28;10137;-78
2022/10/10 03:21:04;;;;;;;;;77.50;67.00;;;;;17.97;65.17;100022.34;5051675;28;10729;-79
2022/10/10 03:23:34;;;;;;;;;77.00;65.00;;;;;18.02;64.82;100027.53;5051367;28;10003;-76
2022/10/10 03:26:04;;;;;;;;;76.50;64.50;;;;;18.10;64.58;100029.06;5098543;28;9771;-79
2022/10/10 03:28:33;;;;;;;;;82.00;67.25;;;;;18.15;63.96;100034.25;5071789;28;9697;-78
2022/10/10 03:31:02;;;;;;;;;71.75;57.75;;;;;18.20;63.42;100035.00;5061698;28;9938;-81
2022/10/10 03:33:30;;;;;;;;;76.25;65.75;;;;;18.20;63.00;100032.34;5070597;28;9896;-78
2022/10/10 03:36:00;;;;;;;;;77.25;67.00;;;;;18.21;62.20;100035.88;5040511;28;9803;-78
2022/10/10 03:38:29;;;;;;;;;77.00;65.25;;;;;18.06;62.55;100037.09;5066482;28;9970;-76
2022/10/10 03:40:58;;;;;;;;;76.00;64.50;;;;;18.01;62.36;100036.34;5033372;28;9736;-78
2022/10/10 03:43:26;;;;;;;;;73.25;61.25;;;;;18.03;62.60;100031.88;5047442;28;9546;-79
2022/10/10 03:45:55;;;;;;;;;74.25;62.00;;;;;18.00;62.60;100024.91;5051986;28;9624;-80
2022/10/10 03:48:23;;;;;;;;;75.00;63.50;;;;;18.02;62.75;100019.63;5068847;28;9874;-78
2022/10/10 03:50:52;;;;;;;;;86.50;79.00;;;;;18.03;62.74;100019.56;5044374;28;9460;-78
2022/10/10 03:53:22;;;;;;;;;82.00;72.75;;;;;18.09;62.57;100021.19;5032726;28;10897;-80
2022/10/10 03:55:53;;;;;;;;;79.25;67.75;;;;;18.10;62.11;100023.78;5065163;28;10376;-78
2022/10/10 03:58:22;;;;;;;;;77.25;65.25;;;;;18.02;62.66;100028.38;5032710;28;9919;-81
2022/10/10 04:00:55;;;;;;;;;76.25;65.25;;;;;18.09;62.42;100023.81;5016964;28;9721;-77
2022/10/10 04:03:25;;;;;;;;;76.75;66.25;;;;;18.02;62.41;100027.53;5029639;28;10048;-82
2022/10/10 04:05:54;;;;;;;;;77.50;66.00;;;;;18.00;62.28;100022.28;5029200;28;9864;-78
2022/10/10 04:08:24;;;;;;;;;83.00;75.00;;;;;18.00;62.59;100018.78;5008070;28;9830;-77
2022/10/10 04:10:54;;;;;;;;;92.25;87.75;;;;;18.00;62.70;100019.66;5009537;28;10245;-78
2022/10/10 04:13:26;;;;;;;;;71.00;55.50;;;;;18.04;62.48;100021.31;5009151;28;10868;-80
2022/10/10 04:15:56;;;;;;;;;80.75;70.25;;;;;18.05;62.56;100014.25;4977296;28;9728;-78
2022/10/10 04:18:25;;;;;;;;;78.25;67.75;;;;;18.06;62.28;100014.22;5018478;28;10223;-77
2022/10/10 04:20:54;;;;;;;;;77.75;63.75;;;;;18.07;61.97;100015.97;5029985;28;9711;-81
2022/10/10 04:23:24;;;;;;;;;78.00;65.00;;;;;18.05;62.28;100016.88;5030717;28;9935;-78
2022/10/10 04:25:53;;;;;;;;;78.75;68.75;;;;;18.05;62.28;100011.59;5031429;28;9875;-82
2022/10/10 04:28:23;;;;;;;;;94.50;87.75;;;;;17.99;62.41;100012.63;4984750;28;9998;-76
2022/10/10 04:30:51;;;;;;;;;81.50;72.75;;;;;18.00;62.65;100014.38;4999006;28;11164;-79
2022/10/10 04:33:20;;;;;;;;;152.33;144.00;;;;;17.99;63.04;100019.66;4997503;28;10258;-79
2022/10/10 04:35:49;;;;;;;;;82.75;74.50;;;;;17.70;63.57;100018.53;5037106;28;11627;-80
2022/10/10 04:38:20;;;;;;;;;85.50;75.75;;;;;17.59;64.04;100015.28;5037260;28;10718;-77
2022/10/10 04:40:50;;;;;;;;;75.75;64.25;;;;;17.63;64.10;100019.56;5056183;28;10814;-79
2022/10/10 04:43:19;;;;;;;;;82.00;71.25;;;;;17.67;63.66;100024.72;5030936;28;10766;-80
2022/10/10 04:45:48;;;;;;;;;83.00;72.25;;;;;17.72;63.26;100022.88;5032527;28;10677;-81
2022/10/10 04:48:16;;;;;;;;;80.00;73.50;;;;;17.76;63.38;100025.44;5030939;28;10480;-79
2022/10/10 04:50:51;;;;;;;;;82.50;75.75;;;;;17.85;63.32;100031.41;5047355;28;10471;-81
2022/10/10 04:53:20;;;;;;;;;75.75;63.25;;;;;17.83;63.55;100032.34;5032102;28;10222;-80
2022/10/10 04:55:50;;;;;;;;;75.25;63.00;;;;;17.88;63.16;100036.63;5053818;28;9831;-78
2022/10/10 04:58:19;;;;;;;;;78.75;63.50;;;;;17.92;63.16;100038.28;5052336;28;9497;-82
2022/10/10 05:00:51;;;;;;;;;77.00;65.00;;;;;17.98;62.89;100037.28;5029094;28;9651;-80
2022/10/10 05:03:21;;;;;;;;;80.00;68.75;;;;;17.92;62.90;100038.28;5031957;28;9640;-79
2022/10/10 05:05:50;;;;;;;;;76.50;65.25;;;;;17.92;62.58;100037.44;5050181;28;10349;-79
2022/10/10 05:08:19;;;;;;;;;80.50;70.00;;;;;17.93;62.43;100040.00;5001245;28;9897;-81
2022/10/10 05:10:48;;;;;;;;;80.50;69.75;;;;;17.96;62.46;100044.38;5052326;28;10059;-78
2022/10/10 05:13:17;;;;;;;;;76.00;63.25;;;;;17.97;62.72;100043.47;5031869;28;10156;-78
2022/10/10 05:15:50;;;;;;;;;80.50;69.25;;;;;17.98;63.57;100044.34;4979814;28;9774;-78
2022/10/10 05:18:19;;;;;;;;;77.25;66.25;;;;;18.01;62.95;100047.75;5031615;28;10093;-77
2022/10/10 05:20:48;;;;;;;;;81.00;71.25;;;;;18.02;62.96;100040.72;5049033;28;9702;-80
2022/10/10 05:23:17;;;;;;;;;79.50;69.00;;;;;18.04;63.04;100041.56;5012526;28;10170;-78
2022/10/10 05:25:49;;;;;;;;;79.25;66.75;;;;;18.07;63.24;100042.34;5031903;28;10148;-80
2022/10/10 05:28:19;;;;;;;;;80.50;72.00;;;;;18.04;63.17;100039.78;5031588;28;9817;-80
2022/10/10 05:30:48;;;;;;;;;77.25;67.75;;;;;18.06;63.48;100045.88;4979071;28;10377;-79
2022/10/10 05:33:16;;;;;;;;;84.50;78.25;;;;;18.08;63.36;100043.22;5027082;28;10191;-79
2022/10/10 05:35:45;;;;;;;;;81.00;74.25;;;;;18.13;63.06;100049.25;5033694;28;10348;-84
2022/10/10 05:38:13;;;;;;;;;80.00;67.25;;;;;18.18;63.11;100050.00;5015023;28;10467;-77
2022/10/10 05:40:42;;;;;;;;;79.25;68.50;;;;;18.20;63.14;100060.53;5047689;28;10216;-79
2022/10/10 05:43:11;;;;;;;;;81.75;71.25;;;;;18.28;62.89;100067.38;5047239;28;10155;-79
2022/10/10 05:45:42;;;;;;;;;81.00;71.75;;;;;18.37;62.80;100063.63;5034405;28;10446;-80
2022/10/10 05:48:11;;;;;;;;;82.25;72.50;;;;;18.42;62.39;100063.53;5015061;28;10254;-78
2022/10/10 05:50:45;;;;;;;;;78.25;67.50;;;;;18.44;62.57;100074.94;5046900;28;10230;-80
2022/10/10 05:53:14;;;;;;;;;80.00;69.25;;;;;18.51;62.44;100072.09;5033403;28;10240;-80
2022/10/10 05:55:44;;;;;;;;;76.50;65.50;;;;;18.55;62.33;100072.88;5082581;28;9948;-80
2022/10/10 05:58:13;;;;;;;;;80.75;68.75;;;;;18.59;62.39;100071.91;5053779;28;9918;-80
2022/10/10 06:00:44;;;;;;;;;77.75;67.25;;;;;18.65;62.39;100070.88;5049028;28;9883;-79
2022/10/10 06:03:15;;;;;;;;;80.50;74.75;;;;;18.73;62.32;100068.91;5058726;28;9897;-79
2022/10/10 06:05:47;;;;;;;;;81.50;72.00;;;;;18.78;61.88;100064.38;5048442;28;10212;-79
2022/10/10 06:08:16;;;;;;;;;80.25;69.50;;;;;18.81;62.24;100064.34;5044878;28;10246;-79
2022/10/10 06:10:46;;;;;;;;;81.50;74.25;;;;;18.89;62.31;100069.41;5038812;28;10237;-80
2022/10/10 06:13:17;;;;;;;;;77.75;67.75;;;;;18.95;62.19;100076.31;5049793;28;10244;-79
2022/10/10 06:15:53;;;;;;;;;78.50;66.50;;;;;19.04;62.10;100079.56;5031039;28;10053;-80
2022/10/10 06:18:22;;;;;;;;;78.00;67.00;;;;;19.12;62.26;100073.22;5048798;28;10629;-79
2022/10/10 06:20:51;;;;;;;;;82.50;73.75;;;;;19.21;62.10;100065.03;5047523;28;10548;-79
2022/10/10 06:23:20;;;;;;;;;79.25;66.50;;;;;19.27;62.01;100068.38;5047584;28;10124;-77
2022/10/10 06:25:52;;;;;;;;;80.75;71.50;;;;;19.42;61.55;100066.22;5047677;28;10141;-78
2022/10/10 06:28:21;;;;;;;;;80.75;71.00;;;;;19.47;61.25;100070.47;5048331;28;10255;-76
2022/10/10 06:30:58;;;;;;;;;77.00;70.00;;;;;19.57;61.12;100063.13;5047603;28;10241;-78
2022/10/10 06:33:28;;;;;;;;;80.50;70.25;;;;;19.60;61.02;100056.84;5047357;28;10057;-76
2022/10/10 06:35:56;;;;;;;;;78.50;71.00;;;;;19.67;60.71;100055.78;5047964;28;10066;-78
2022/10/10 06:38:26;;;;;;;;;75.25;66.00;;;;;19.53;61.56;100053.53;5032093;28;10244;-76
2022/10/10 06:40:55;;;;;;;;;75.00;59.25;;;;;19.47;62.08;100056.38;5044026;28;10939;-78
2022/10/10 06:43:27;;;;;;;;;73.25;61.00;;;;;19.51;62.04;100058.00;5027723;28;9715;-77
2022/10/10 06:45:58;;;;;;;;;75.25;65.00;;;;;19.59;62.25;100063.94;5029556;28;9566;-79
2022/10/10 06:48:28;;;;;;;;;74.50;64.75;;;;;19.67;62.07;100061.94;5062028;28;9851;-77
2022/10/10 06:50:59;;;;;;;;;76.50;67.50;;;;;19.73;61.77;100058.25;5048372;28;9585;-77
2022/10/10 06:53:28;;;;;;;;;75.25;64.50;;;;;19.93;61.45;100054.16;5048372;28;9650;-78
2022/10/10 06:55:57;;;;;;;;;78.25;70.75;;;;;19.98;61.50;100054.88;5014704;28;9779;-77
2022/10/10 06:58:27;;;;;;;;;73.00;59.50;;;;;19.96;61.52;100060.22;5047992;28;10123;-77
2022/10/10 07:00:59;;;;;;;;;76.25;68.00;;;;;19.93;61.73;100062.09;5047231;28;9620;-78
2022/10/10 07:03:29;;;;;;;;;80.50;70.00;;;;;19.86;62.14;100056.97;5046840;28;10280;-78
2022/10/10 07:05:59;;;;;;;;;80.50;72.00;;;;;20.08;61.83;100055.47;5030541;28;10916;-78
2022/10/10 07:08:29;;;;;;;;;77.00;66.50;;;;;20.10;61.81;100059.78;5010219;28;10130;-79
2022/10/10 07:10:58;;;;;;;;;78.25;69.75;;;;;20.18;61.79;100046.31;5011098;28;9882;-78
2022/10/10 07:13:26;;;;;;;;;78.75;68.25;;;;;20.36;61.01;100052.78;5042003;28;10293;-79
2022/10/10 07:15:55;;;;;;;;;78.75;72.50;;;;;20.12;61.98;100054.44;5029862;28;10306;-78
2022/10/10 07:18:25;;;;;;;;;78.50;66.00;;;;;20.32;61.16;100064.38;5014365;28;10210;-77
2022/10/10 07:20:56;;;;;;;;;78.25;70.75;;;;;20.30;61.00;100053.84;5029645;28;9729;-78
2022/10/10 07:23:25;;;;;;;;;79.50;73.50;;;;;20.33;61.00;100053.75;4964818;28;10138;-77
2022/10/10 07:26:00;;;;;;;;;76.25;70.00;;;;;20.47;60.64;100057.72;5030064;28;10168;-78
2022/10/10 07:28:28;;;;;;;;;81.00;74.00;;;;;20.58;60.56;100059.09;5029654;28;10237;-78
2022/10/10 07:31:01;;;;;;;;;77.50;70.50;;;;;20.55;60.08;100051.28;5030387;28;10322;-76
2022/10/10 07:33:36;;;;;;;;;75.25;66.00;;;;;20.39;60.14;100056.19;5054367;28;10158;-80
2022/10/10 07:36:06;;;;;;;;;75.50;68.75;;;;;20.45;60.14;100052.47;5051812;28;10039;-77
2022/10/10 07:38:35;;;;;;;;;75.75;68.00;;;;;20.52;59.88;100053.16;5041464;28;10142;-78
2022/10/10 07:41:06;;;;;;;;;73.00;60.25;;;;;20.50;60.00;100058.50;5045943;28;9787;-67
2022/10/10 07:43:36;;;;;;;;;76.50;67.00;;;;;20.45;60.05;100050.72;5047167;28;9790;-66
2022/10/10 07:46:05;;;;;;;;;76.25;65.75;;;;;20.49;59.56;100056.78;5046421;28;9928;-67
2022/10/10 07:48:40;;;;;;;;;75.00;67.25;;;;;20.57;59.51;100051.22;5046844;28;9801;-65
2022/10/10 07:51:10;;;;;;;;;74.00;65.00;;;;;20.45;59.96;100061.31;5027557;28;9886;-66
2022/10/10 07:53:39;;;;;;;;;76.00;64.75;;;;;20.54;59.49;100061.91;5049732;28;10213;-79
2022/10/10 07:56:09;;;;;;;;;77.75;70.00;;;;;20.25;59.63;100061.94;5048880;28;10412;-79
2022/10/10 07:58:38;;;;;;;;;73.50;62.25;;;;;20.34;59.47;100060.78;5047483;28;10243;-81
2022/10/10 08:01:10;;;;;;;;;74.75;67.00;;;;;20.41;59.25;100062.31;5044804;28;9703;-79
2022/10/10 08:03:41;;;;;;;;;73.75;64.25;;;;;20.58;58.76;100061.75;5043593;28;10069;-78
2022/10/10 08:06:13;;;;;;;;;74.25;63.25;;;;;20.63;58.68;100067.78;5011172;28;9725;-79
2022/10/10 08:08:43;;;;;;;;;71.00;62.75;;;;;20.51;58.70;100073.50;5047148;28;9653;-78
2022/10/10 08:11:20;;;;;;;;;54.75;45.00;;;;;20.42;58.50;100079.94;5013144;28;9536;-79
2022/10/10 08:13:50;;;;;;;;;74.00;62.33;;;;;20.43;58.39;100067.56;5030998;28;9545;-78
2022/10/10 08:16:21;;;;;;;;;72.00;60.75;;;;;20.48;58.41;100070.06;5053584;28;10208;-79
2022/10/10 08:18:50;;;;;;;;;71.33;59.00;;;;;20.39;58.66;100071.22;5038483;28;9734;-80
2022/10/10 08:21:19;;;;;;;;;70.00;56.33;;;;;20.42;58.49;100071.13;5050146;28;9399;-76
2022/10/10 08:23:48;;;;;;;;;73.00;63.33;;;;;20.28;59.08;100060.97;5034253;28;9166;-79
2022/10/10 08:26:18;;;;;;;;;72.00;59.00;;;;;20.48;58.65;100072.72;5035531;28;9575;-79
2022/10/10 08:28:48;;;;;;;;;70.00;56.67;;;;;20.45;58.48;100063.06;5012995;28;9529;-77
2022/10/10 08:31:19;;;;;;;;;72.00;60.50;;;;;20.52;58.58;100067.25;4996389;28;9235;-79
2022/10/10 08:33:50;;;;;;;;;71.33;60.00;;;;;20.43;58.72;100068.44;5032372;28;9725;-78
2022/10/10 08:36:21;;;;;;;;;72.75;61.25;;;;;20.47;58.10;100071.84;5028918;28;9469;-78
2022/10/10 08:38:51;;;;;;;;;72.75;60.75;;;;;20.42;58.42;100068.50;5012817;28;9498;-77
2022/10/10 08:41:29;;;;;;;;;72.25;63.00;;;;;20.52;58.31;100064.59;5023189;28;9658;-77
2022/10/10 08:44:00;;;;;;;;;77.00;66.00;;;;;20.49;58.39;100064.72;5016640;28;9719;-77
2022/10/10 08:46:36;;;;;;;;;73.00;58.50;;;;;20.52;58.29;100069.91;5049468;28;9646;-77
2022/10/10 08:49:17;;;;;;;;;73.75;66.00;;;;;20.51;58.67;100062.91;5035170;28;9727;-81
2022/10/10 08:51:52;;;;;;;;;74.25;64.75;;;;;20.50;58.66;100073.53;5018382;28;9788;-77
2022/10/10 08:54:25;;;;;;;;;76.00;64.50;;;;;20.43;58.91;100076.41;5054202;28;10670;-81
2022/10/10 08:56:59;;;;;;;;;79.75;72.00;;;;;20.52;58.70;100064.59;5050353;28;9711;-77
2022/10/10 08:59:33;;;;;;;;;77.75;68.75;;;;;20.72;58.21;100068.41;5016481;28;10294;-76
2022/10/10 09:02:25;;;;;;;;;76.25;67.50;;;;;20.80;58.46;100064.56;5016811;28;10093;-76
2022/10/10 09:05:18;;;;;;;;;75.00;63.25;;;;;20.96;57.68;100072.00;5033747;28;10172;-76
2022/10/10 09:08:12;;;;;;;;;78.75;72.00;;;;;21.28;56.88;100064.69;5083428;28;11131;-77
2022/10/10 09:10:53;;;;;;;;;77.25;72.00;;;;;21.23;57.28;100071.03;5032005;28;10230;-71
2022/10/10 09:13:31;;;;;;;;;79.25;74.25;;;;;21.24;57.20;100071.88;5049252;28;10467;-70
2022/10/10 09:16:02;;;;;;;;;81.50;74.75;;;;;21.12;57.21;100072.34;5048646;28;12000;-68
2022/10/10 09:18:51;;;;;;;;;82.00;76.50;;;;;21.41;56.70;100060.66;5049234;28;10637;-70
2022/10/10 09:21:27;;;;;;;;;78.75;75.75;;;;;21.43;56.54;100064.97;5013618;28;10617;-69
2022/10/10 09:24:01;;;;;;;;;77.00;71.25;;;;;21.56;56.21;100060.13;5029853;28;10787;-70
2022/10/10 09:26:34;;;;;;;;;75.00;65.75;;;;;21.54;56.08;100059.31;5030256;28;10772;-69
2022/10/10 09:29:16;;;;;;;;;77.00;71.75;;;;;21.58;56.03;100055.59;5049282;28;11111;-78
2022/10/10 09:32:33;;;;;;;;;77.50;71.25;;;;;21.67;55.51;100051.75;4950008;28;10420;-79
2022/10/10 09:35:13;;;;;;;;;74.75;66.25;;;;;21.66;55.49;100063.28;4950296;28;10323;-78
2022/10/10 09:37:45;;;;;;;;;76.00;66.75;;;;;21.65;55.43;100061.56;4933030;28;10189;-79
2022/10/10 09:40:22;;;;;;;;;73.00;63.00;;;;;21.79;55.22;100061.88;4933302;28;11026;-76
2022/10/10 09:42:51;;;;;;;;;72.50;62.75;;;;;21.77;54.95;100063.72;4948137;28;10089;-78
2022/10/10 09:45:25;;;;;;;;;69.67;58.67;;;;;21.82;54.44;100060.06;4949633;28;9759;-78
2022/10/10 09:56:14;;;;;;;;;62.33;50.67;;;;;21.82;54.03;100050.31;5030419;28;8878;-75
2022/10/10 09:58:45;;;;;;;;;66.00;52.00;;;;;21.79;54.42;100055.72;5030327;28;10514;-77
2022/10/10 10:01:16;;;;;;;;;61.33;50.00;;;;;21.96;54.08;100053.25;5043075;28;9015;-77
2022/10/10 10:04:15;;;;;;;;;60.75;49.25;;;;;22.17;53.65;100054.22;4982112;28;9181;-77
2022/10/10 10:07:06;;;;;;;;;65.25;51.75;;;;;22.41;52.95;100053.31;5011988;28;9664;-80
2022/10/10 10:09:35;;;;;;;;;60.75;49.50;;;;;22.48;52.27;100046.81;5064361;28;9028;-77
2022/10/10 10:12:06;;;;;;;;;61.50;50.00;;;;;22.36;51.87;100049.06;5058821;28;8884;-75
2022/10/10 10:14:37;;;;;;;;;54.75;44.75;;;;;22.49;51.39;100035.25;5041496;28;9010;-75
2022/10/10 10:17:08;;;;;;;;;58.50;49.00;;;;;22.63;51.00;100045.28;5039430;28;8965;-74
2022/10/10 10:19:39;;;;;;;;;59.00;48.75;;;;;22.36;51.58;100040.19;5028097;28;8877;-75
2022/10/10 10:22:27;;;;;;;;;56.00;45.75;;;;;22.44;51.27;100051.41;5014234;28;8901;-75
2022/10/10 10:24:55;;;;;;;;;60.25;49.75;;;;;22.54;51.11;100043.91;5047277;28;8834;-75
2022/10/10 10:27:27;;;;;;;;;58.50;46.50;;;;;22.46;51.37;100038.91;5062660;28;8880;-77
2022/10/10 10:29:58;;;;;;;;;48.00;41.75;;;;;22.47;51.08;100043.28;5047214;28;8874;-77
2022/10/10 10:32:45;;;;;;;;;59.25;48.00;;;;;22.62;50.71;100038.25;5014066;28;8886;-77
2022/10/10 10:35:24;;;;;;;;;55.50;44.50;;;;;22.55;50.47;100034.97;5029258;28;8912;-79
2022/10/10 10:38:08;;;;;;;;;45.50;40.25;;;;;22.70;50.20;100034.34;5018116;28;8951;-76
2022/10/10 10:40:41;;;;;;;;;59.25;47.25;;;;;22.77;50.12;100030.47;5030244;28;8878;-77
2022/10/10 10:43:37;;;;;;;;;53.50;44.75;;;;;22.93;49.83;100033.34;5049104;28;8988;-75
2022/10/10 10:46:21;;;;;;;;;55.50;46.00;;;;;22.98;49.65;100028.66;5048945;28;8979;-80
2022/10/10 10:49:02;;;;;;;;;55.00;45.50;;;;;22.89;49.62;100017.56;5048474;28;8866;-77
2022/10/10 10:51:56;;;;;;;;;53.75;44.50;;;;;23.10;49.33;100011.34;5082035;28;8930;-77
2022/10/10 10:54:41;;;;;;;;;55.00;46.00;;;;;23.28;48.91;100017.63;5049470;28;8940;-77
2022/10/10 10:57:16;;;;;;;;;52.25;44.00;;;;;23.18;49.02;100012.81;5049688;28;9091;-78
2022/10/10 11:00:12;;;;;;;;;53.00;44.00;;;;;23.17;48.81;100003.94;5065107;28;9700;-76
2022/10/10 11:03:22;;;;;;;;;53.75;43.00;;;;;23.33;48.60;100012.09;5065045;28;10111;-75
2022/10/10 11:06:26;;;;;;;;;52.25;42.00;;;;;23.25;48.28;100008.91;5065505;28;8976;-77
2022/10/10 11:09:06;;;;;;;;;58.25;47.25;;;;;23.30;48.45;100002.44;5048903;28;8887;-77
2022/10/10 11:12:09;;;;;;;;;50.50;42.25;;;;;23.26;48.32;99986.72;5061375;28;8853;-78
2022/10/10 11:14:51;;;;;;;;;49.00;42.00;;;;;23.25;48.78;99976.97;5048018;28;8853;-80
2022/10/10 11:17:30;;;;;;;;;55.00;44.25;;;;;23.11;49.48;99975.81;5030260;28;8907;-77
2022/10/10 11:20:18;;;;;;;;;47.00;39.00;;;;;23.33;48.96;99972.19;5061027;28;8841;-77
2022/10/10 11:22:52;;;;;;;;;4.00;3.00;;;;;23.30;48.84;99970.50;5049064;28;8876;-76
2022/10/10 11:25:26;;;;;;;;;46.00;39.50;;;;;23.38;48.89;99967.50;5049376;28;9655;-78
2022/10/10 11:27:59;;;;;;;;;39.25;34.75;;;;;23.18;48.53;99964.91;5050250;28;8944;-77
2022/10/10 11:30:33;;;;;;;;;46.75;39.25;;;;;22.91;49.22;99963.41;5049291;28;8853;-77
2022/10/10 11:33:11;;;;;;;;;46.25;38.75;;;;;22.88;49.30;99957.34;5066583;28;8857;-78
2022/10/10 11:35:46;;;;;;;;;44.75;39.00;;;;;23.00;49.46;99954.13;5013448;28;8914;-76
2022/10/10 11:38:23;;;;;;;;;43.75;37.25;;;;;23.14;49.07;99951.75;5031454;28;8860;-77
2022/10/10 11:40:56;;;;;;;;;40.75;35.75;;;;;23.31;48.77;99950.09;5049535;28;8920;-78
2022/10/10 11:43:37;;;;;;;;;48.00;37.50;;;;;23.51;48.29;99960.66;5034918;28;8981;-80
2022/10/10 11:46:16;;;;;;;;;45.00;37.50;;;;;23.65;47.60;99951.19;5018287;28;8939;-77
2022/10/10 11:48:53;;;;;;;;;45.75;37.50;;;;;23.77;47.56;99952.38;5034442;28;8862;-79
2022/10/10 11:51:34;;;;;;;;;39.50;34.25;;;;;23.87;47.61;99945.69;5054104;28;8905;-75